Time;durP1;ratioP1;P1;durP2;ratioP2;P2;SDS_P1;SDS_P2;PMS_P1;PMS_P2;Temp;Humidity;BMP_temperature;BMP_pressure;BME280_temperature;BME280_humidity;BME280_pressure;Samples;Min_cycle;Max_cycle;Signal;HPM_P1;HPM_P2
2022/04/30 00:01:14;;;;;;;;;;;;;;;25.33;37.68;94685.72;4945870;28;7679;-54
2022/04/30 00:03:43;;;;;;;;;;;;;;;25.32;37.29;94683.44;4963628;28;9041;-54
2022/04/30 00:06:11;;;;;;;;;;;;;;;25.31;37.36;94682.72;4964603;28;7231;-53
2022/04/30 00:08:52;;;;;;;;;;;;;;;25.32;37.77;94683.44;4955101;28;7365;-53
2022/04/30 00:11:18;;;;;;;;;;;;;;;25.31;37.51;94682.72;4955272;28;7312;-54
2022/04/30 00:13:53;;;;;;;;;;;;;;;25.31;37.90;94687.47;4986638;28;9106;-54
2022/04/30 00:16:26;;;;;;;;;;;;;;;25.28;37.22;94680.19;4991266;28;7234;-54
2022/04/30 00:19:03;;;;;;;;;;;;;;;25.31;37.52;94692.97;4984718;28;7749;-53
2022/04/30 00:21:29;;;;;;;;;;;;;;;25.29;37.48;94689.97;4999864;28;9422;-54
2022/04/30 00:24:02;;;;;;;;;;;;;;;25.28;37.19;94686.47;4986982;28;8770;-55
2022/04/30 00:26:28;;;;;;;;;;;;;;;25.29;37.39;94684.47;4998964;28;7258;-54
2022/04/30 00:28:54;;;;;;;;;;;;;;;25.28;37.37;94689.22;5006491;28;7247;-54
2022/04/30 00:31:22;;;;;;;;;;;;;;;25.26;37.14;94686.22;4990214;28;7092;-52
2022/04/30 00:33:49;;;;;;;;;;;;;;;25.25;37.58;94692.97;5001793;28;9083;-53
2022/04/30 00:36:15;;;;;;;;;;;;;;;25.26;37.50;94682.72;4989383;28;7474;-54
2022/04/30 00:38:41;;;;;;;;;;;;;;;25.25;37.41;94695.00;4988590;28;7146;-54
2022/04/30 00:41:15;;;;;;;;;;;;;;;25.26;37.47;94690.97;5004638;28;7054;-54
2022/04/30 00:43:45;;;;;;;;;;;;;;;25.25;37.64;94692.22;4990107;28;7279;-52
2022/04/30 00:46:14;;;;;;;;;;;;;;;25.25;37.48;94695.72;4985154;28;8240;-51
2022/04/30 00:48:44;;;;;;;;;;;;;;;25.24;37.92;94688.72;4989607;28;7299;-51
2022/04/30 00:51:15;;;;;;;;;;;;;;;25.25;37.61;94689.47;4988987;28;9615;-54
2022/04/30 00:53:50;;;;;;;;;;;;;;;25.25;38.05;94697.75;4996323;28;7253;-54
2022/04/30 00:56:30;;;;;;;;;;;;;;;25.24;37.73;94693.47;4987248;28;8424;-54
2022/04/30 00:58:56;;;;;;;;;;;;;;;25.23;37.46;94691.97;4992390;28;6990;-54
2022/04/30 01:01:24;;;;;;;;;;;;;;;25.21;36.96;94694.47;5004232;28;9623;-54
2022/04/30 01:03:51;;;;;;;;;;;;;;;25.22;37.54;94691.22;4970889;28;8188;-54
2022/04/30 01:06:44;;;;;;;;;;;;;;;25.21;37.95;94688.97;5000312;28;9180;-53
2022/04/30 01:09:18;;;;;;;;;;;;;;;25.20;37.79;94693.72;4982705;28;9393;-55
2022/04/30 01:11:47;;;;;;;;;;;;;;;25.20;37.38;94685.47;4987633;28;7181;-52
2022/04/30 01:14:14;;;;;;;;;;;;;;;25.19;37.88;94686.72;5003236;28;7232;-51
2022/04/30 01:16:43;;;;;;;;;;;;;;;25.19;37.82;94685.97;4984895;28;9004;-51
2022/04/30 01:19:18;;;;;;;;;;;;;;;25.17;37.69;94680.97;4985771;28;9259;-52
2022/04/30 01:21:49;;;;;;;;;;;;;;;25.18;37.57;94687.22;4998453;28;9565;-52
2022/04/30 01:24:20;;;;;;;;;;;;;;;25.19;37.88;94685.97;4986641;28;7001;-52
2022/04/30 01:26:57;;;;;;;;;;;;;;;25.19;37.88;94688.72;4986999;28;7530;-51
2022/04/30 01:29:44;;;;;;;;;;;;;;;25.17;37.10;94682.97;4992124;28;6995;-52
2022/04/30 01:38:15;;;;;;;;;;;;;;;25.14;37.97;94675.72;4977622;28;7338;-52
2022/04/30 01:40:42;;;;;;;;;;;;;;;25.14;37.47;94679.19;4988024;28;9092;-52
2022/04/30 01:43:09;;;;;;;;;;;;;;;25.14;37.62;94678.47;5001326;28;8743;-50
2022/04/30 01:45:36;;;;;;;;;;;;;;;25.14;38.01;94683.97;4983637;28;9081;-52
2022/04/30 01:48:04;;;;;;;;;;;;;;;25.11;37.34;94680.22;4991064;28;9149;-53
2022/04/30 01:50:34;;;;;;;;;;;;;;;25.11;37.30;94666.47;4991829;28;9084;-52
2022/04/30 01:53:02;;;;;;;;;;;;;;;25.11;37.30;94662.94;4981131;28;7245;-51
2022/04/30 01:55:28;;;;;;;;;;;;;;;25.09;37.34;94652.44;5009911;28;8723;-54
2022/04/30 01:57:54;;;;;;;;;;;;;;;25.09;37.48;94655.19;5007301;28;7543;-52
2022/04/30 02:00:20;;;;;;;;;;;;;;;25.11;37.64;94668.44;5005657;28;9355;-52
2022/04/30 02:02:49;;;;;;;;;;;;;;;25.10;37.86;94667.69;4989391;28;7212;-53
2022/04/30 02:05:18;;;;;;;;;;;;;;;25.11;37.55;94658.19;5010250;28;9053;-50
2022/04/30 02:08:15;;;;;;;;;;;;;;;25.10;37.46;94645.69;4987895;28;7313;-50
2022/04/30 02:10:42;;;;;;;;;;;;;;;25.10;37.71;94655.97;5010465;28;7455;-53
2022/04/30 02:13:12;;;;;;;;;;;;;;;25.08;37.48;94647.44;5010600;28;7144;-53
2022/04/30 02:15:43;;;;;;;;;;;;;;;25.09;38.19;94640.69;4993539;28;9081;-53
2022/04/30 02:18:22;;;;;;;;;;;;;;;25.10;37.35;94644.94;4994148;28;8280;-52
2022/04/30 02:20:59;;;;;;;;;;;;;;;25.10;37.95;94639.44;4990480;28;7147;-52
2022/04/30 02:23:27;;;;;;;;;;;;;;;25.10;37.23;94633.94;4994084;28;7677;-54
2022/04/30 02:26:06;;;;;;;;;;;;;;;25.09;38.02;94635.19;5005548;28;7491;-53
2022/04/30 02:29:10;;;;;;;;;;;;;;;25.09;37.35;94635.19;5010534;28;8370;-49
2022/04/30 02:32:02;;;;;;;;;;;;;;;25.08;37.59;94639.16;4994477;28;7934;-53
2022/04/30 02:34:57;;;;;;;;;;;;;;;25.07;37.60;94630.19;4927312;29;7861;-53
2022/04/30 02:37:36;;;;;;;;;;;;;;;25.06;37.53;94622.41;4903645;29;8001;-53
2022/04/30 02:40:06;;;;;;;;;;;;;;;25.05;37.58;94615.41;4903042;29;9519;-51
2022/04/30 02:42:32;;;;;;;;;;;;;;;25.02;37.17;94617.16;4916748;29;9041;-53
2022/04/30 02:44:59;;;;;;;;;;;;;;;25.04;37.57;94611.91;4918531;29;7198;-53
2022/04/30 02:47:28;;;;;;;;;;;;;;;25.06;37.26;94608.66;4918489;29;7201;-53
2022/04/30 02:49:54;;;;;;;;;;;;;;;25.02;37.54;94599.91;4908875;29;7094;-52
2022/04/30 02:52:22;;;;;;;;;;;;;;;25.04;37.28;94605.66;4928702;29;9054;-53
2022/04/30 02:54:51;;;;;;;;;;;;;;;25.05;37.58;94602.41;4918371;29;7383;-52
2022/04/30 02:57:19;;;;;;;;;;;;;;;25.05;37.38;94605.16;4930445;29;9544;-50
2022/04/30 03:00:00;;;;;;;;;;;;;;;25.01;37.44;94601.91;4933809;29;9084;-52
2022/04/30 03:02:33;;;;;;;;;;;;;;;24.99;37.86;94590.66;4914827;29;7054;-49
2022/04/30 03:05:07;;;;;;;;;;;;;;;25.03;37.29;94607.69;4923797;29;7216;-52
2022/04/30 03:07:37;;;;;;;;;;;;;;;25.03;37.19;94599.41;4916520;29;7021;-53
2022/04/30 03:10:55;;;;;;;;;;;;;;;25.02;37.90;94597.91;4918628;29;9107;-53
2022/04/30 03:13:30;;;;;;;;;;;;;;;25.02;37.98;94605.41;4889092;29;7857;-52
2022/04/30 03:21:49;;;;;;;;;;;;;;;25.01;37.48;94609.44;4916146;29;9808;-53
2022/04/30 03:24:29;;;;;;;;;;;;;;;25.00;37.17;94613.41;4904705;29;9642;-53
2022/04/30 03:26:58;;;;;;;;;;;;;;;25.01;37.67;94615.66;4895796;29;10328;-53
2022/04/30 03:29:24;;;;;;;;;;;;;;;24.97;37.18;94603.44;4924169;29;9487;-49
2022/04/30 03:32:02;;;;;;;;;;;;;;;24.97;37.38;94606.91;4891029;29;8828;-53
2022/04/30 03:34:30;;;;;;;;;;;;;;;24.99;37.80;94609.19;4914370;29;7319;-50
2022/04/30 03:36:55;;;;;;;;;;;;;;;24.97;37.55;94609.66;4905647;29;8906;-49
2022/04/30 03:39:21;;;;;;;;;;;;;;;24.97;37.82;94608.94;4909892;29;7676;-53
2022/04/30 03:41:47;;;;;;;;;;;;;;;24.97;37.79;94603.44;4915459;29;9134;-52
2022/04/30 03:44:13;;;;;;;;;;;;;;;24.97;37.32;94604.16;4894120;29;9043;-53
2022/04/30 03:46:39;;;;;;;;;;;;;;;24.97;37.48;94606.91;4913689;29;7719;-52
2022/04/30 03:49:14;;;;;;;;;;;;;;;24.97;37.59;94603.44;4921236;28;9252;-52
2022/04/30 03:51:40;;;;;;;;;;;;;;;24.96;37.49;94602.66;4991411;28;7599;-53
2022/04/30 03:54:06;;;;;;;;;;;;;;;24.94;37.63;94596.91;5005103;28;8856;-53
2022/04/30 03:56:32;;;;;;;;;;;;;;;24.96;37.33;94602.66;4987485;28;9193;-53
2022/04/30 03:59:01;;;;;;;;;;;;;;;24.96;37.93;94601.91;4991097;28;8910;-51
2022/04/30 04:01:29;;;;;;;;;;;;;;;24.95;37.63;94594.91;4992254;28;7371;-51
2022/04/30 04:04:00;;;;;;;;;;;;;;;24.96;37.53;94601.91;4993691;28;7592;-53
2022/04/30 04:06:32;;;;;;;;;;;;;;;24.94;37.86;94599.66;4992060;28;9078;-53
2022/04/30 04:08:59;;;;;;;;;;;;;;;24.94;37.38;94599.66;4992493;28;9007;-51
2022/04/30 04:11:39;;;;;;;;;;;;;;;24.93;37.81;94598.16;4992053;28;9064;-51
2022/04/30 04:19:37;;;;;;;;;;;;;;;24.91;37.69;94608.91;4992771;28;8969;-51
2022/04/30 04:22:03;;;;;;;;;;;;;;;24.92;37.87;94612.44;4991016;28;7526;-52
2022/04/30 04:27:17;;;;;;;;;;;;;;;24.92;37.79;94621.44;4981731;28;9426;-53
2022/04/30 04:29:46;;;;;;;;;;;;;;;24.91;37.42;94616.41;5002151;28;7334;-51
2022/04/30 04:32:17;;;;;;;;;;;;;;;24.88;37.72;94609.19;4983222;28;7954;-53
2022/04/30 04:34:50;;;;;;;;;;;;;;;24.88;37.52;94620.19;4991138;28;9435;-53
2022/04/30 04:37:15;;;;;;;;;;;;;;;24.89;37.55;94618.91;5004041;28;9297;-51
2022/04/30 04:40:13;;;;;;;;;;;;;;;24.85;37.77;94612.91;5005144;28;8410;-51
2022/04/30 04:42:40;;;;;;;;;;;;;;;24.86;37.53;94622.69;4949984;28;6978;-53
2022/04/30 04:45:08;;;;;;;;;;;;;;;24.87;37.91;94622.19;4951337;28;9759;-53
2022/04/30 04:47:49;;;;;;;;;;;;;;;24.85;37.84;94618.41;4959403;28;9098;-52
2022/04/30 04:50:26;;;;;;;;;;;;;;;24.84;37.95;94620.41;4943745;28;7517;-52
2022/04/30 04:52:54;;;;;;;;;;;;;;;24.85;38.01;94618.41;4954180;28;7196;-50
2022/04/30 04:55:22;;;;;;;;;;;;;;;24.84;37.41;94623.16;4942310;28;6988;-51
2022/04/30 04:57:57;;;;;;;;;;;;;;;24.84;37.71;94616.94;4953184;28;9112;-51
2022/04/30 05:00:24;;;;;;;;;;;;;;;24.82;37.89;94613.91;4931148;29;7002;-52
2022/04/30 05:02:53;;;;;;;;;;;;;;;24.83;37.40;94624.44;4945140;28;8670;-51
2022/04/30 05:05:26;;;;;;;;;;;;;;;24.82;37.81;94619.41;4955027;28;7234;-51
2022/04/30 05:07:56;;;;;;;;;;;;;;;24.81;37.68;94618.69;4930016;28;7055;-53
2022/04/30 05:10:30;;;;;;;;;;;;;;;24.82;37.29;94625.66;4942971;28;7231;-52
2022/04/30 05:12:57;;;;;;;;;;;;;;;24.83;37.80;94631.94;4951893;28;7105;-52
2022/04/30 05:15:23;;;;;;;;;;;;;;;24.82;37.69;94622.91;4936155;28;7227;-52
2022/04/30 05:18:09;;;;;;;;;;;;;;;24.81;37.89;94623.44;4951028;28;9141;-51
2022/04/30 05:20:38;;;;;;;;;;;;;;;24.82;37.66;94628.41;4992428;28;9071;-52
2022/04/30 05:23:19;;;;;;;;;;;;;;;24.81;37.59;94632.44;4979313;28;8656;-53
2022/04/30 05:25:54;;;;;;;;;;;;;;;24.82;37.55;94635.91;4987896;28;8549;-49
2022/04/30 05:28:22;;;;;;;;;;;;;;;24.79;37.28;94634.19;4989166;28;9011;-53
2022/04/30 05:30:50;;;;;;;;;;;;;;;24.79;37.88;94631.44;4980890;28;8592;-53
2022/04/30 05:33:17;;;;;;;;;;;;;;;24.79;37.32;94631.44;4987834;28;7327;-52
2022/04/30 05:35:43;;;;;;;;;;;;;;;24.79;37.25;94625.94;4980725;28;9035;-52
2022/04/30 05:38:47;;;;;;;;;;;;;;;24.80;37.79;94627.41;4974099;28;8417;-50
2022/04/30 05:41:28;;;;;;;;;;;;;;;24.77;37.62;94633.94;4937442;29;9457;-52
2022/04/30 05:43:54;;;;;;;;;;;;;;;24.79;37.75;94642.44;4950210;29;9406;-50
2022/04/30 05:46:21;;;;;;;;;;;;;;;24.79;38.07;94647.94;4951719;28;8172;-52
2022/04/30 05:48:47;;;;;;;;;;;;;;;24.78;37.46;94643.66;4952785;28;7294;-52
2022/04/30 05:51:42;;;;;;;;;;;;;;;24.78;38.21;94647.19;4935272;29;9066;-49
2022/04/30 05:54:08;;;;;;;;;;;;;;;24.77;37.71;94636.69;4929085;29;9006;-52
2022/04/30 05:56:34;;;;;;;;;;;;;;;24.77;37.38;94650.44;4946568;28;6881;-51
2022/04/30 05:59:00;;;;;;;;;;;;;;;24.76;37.34;94649.69;4948069;28;9326;-52
2022/04/30 06:01:36;;;;;;;;;;;;;;;24.76;37.33;94657.94;4935746;28;7648;-52
2022/04/30 06:04:04;;;;;;;;;;;;;;;24.76;37.84;94654.44;4954905;28;7482;-50
2022/04/30 06:06:44;;;;;;;;;;;;;;;24.77;38.00;94656.69;4934713;28;7406;-50
2022/04/30 06:09:20;;;;;;;;;;;;;;;24.76;37.68;94665.44;4934580;28;8825;-53
2022/04/30 06:11:48;;;;;;;;;;;;;;;24.76;38.21;94657.94;4954134;28;7207;-53
2022/04/30 06:14:14;;;;;;;;;;;;;;;24.74;37.55;94657.66;4997599;28;7248;-51
2022/04/30 06:16:40;;;;;;;;;;;;;;;24.76;37.43;94657.19;4986692;28;7229;-52
2022/04/30 06:19:11;;;;;;;;;;;;;;;24.75;37.68;94656.41;4983362;28;7237;-53
2022/04/30 06:21:48;;;;;;;;;;;;;;;24.73;37.89;94658.88;4988711;28;7263;-53
2022/04/30 06:24:15;;;;;;;;;;;;;;;24.72;37.61;94660.16;5007520;28;7715;-51
2022/04/30 06:26:43;;;;;;;;;;;;;;;24.70;37.60;94660.66;4990945;28;7209;-52
2022/04/30 06:29:13;;;;;;;;;;;;;;;24.73;37.53;94660.91;4990226;28;7088;-53
2022/04/30 06:31:40;;;;;;;;;;;;;;;24.71;37.46;94662.16;4986646;28;9066;-53
2022/04/30 06:34:07;;;;;;;;;;;;;;;24.73;37.77;94660.91;4988558;28;7356;-53
2022/04/30 06:36:43;;;;;;;;;;;;;;;24.73;37.63;94666.41;4962941;28;6990;-50
2022/04/30 06:39:10;;;;;;;;;;;;;;;24.71;37.44;94653.91;4993913;28;7035;-51
2022/04/30 06:41:50;;;;;;;;;;;;;;;24.72;37.35;94657.41;4994052;28;7029;-53
2022/04/30 06:44:15;;;;;;;;;;;;;;;24.71;37.45;94658.63;5008162;28;7522;-53
2022/04/30 06:46:46;;;;;;;;;;;;;;;24.70;37.87;94663.41;4990323;28;7474;-52
2022/04/30 06:49:15;;;;;;;;;;;;;;;24.68;37.48;94665.88;5008335;28;7904;-53
2022/04/30 06:51:53;;;;;;;;;;;;;;;24.69;37.87;94670.16;4977110;28;7005;-52
2022/04/30 06:57:08;;;;;;;;;;;;;;;24.69;38.01;94670.16;4994455;28;8857;-51
2022/04/30 06:59:45;;;;;;;;;;;;;;;24.68;37.62;94668.63;4993347;28;6986;-52
2022/04/30 07:02:18;;;;;;;;;;;;;;;24.67;38.14;94669.13;4989552;28;7513;-53
2022/04/30 07:04:49;;;;;;;;;;;;;;;24.68;38.07;94671.38;5012891;28;8057;-53
2022/04/30 07:07:19;;;;;;;;;;;;;;;24.66;37.74;94668.38;4996619;28;9352;-53
2022/04/30 07:09:45;;;;;;;;;;;;;;;24.67;37.55;94675.41;4973794;28;9125;-52
2022/04/30 07:12:13;;;;;;;;;;;;;;;24.68;37.58;94673.41;5006112;28;8845;-52
2022/04/30 07:14:41;;;;;;;;;;;;;;;24.67;37.75;94675.41;4991511;28;9187;-52
2022/04/30 07:17:12;;;;;;;;;;;;;;;24.68;37.88;94670.66;5001195;28;9062;-53
2022/04/30 07:19:38;;;;;;;;;;;;;;;24.68;37.88;94676.16;4988771;28;6949;-53
2022/04/30 07:22:07;;;;;;;;;;;;;;;24.67;37.81;94661.66;5004518;28;7203;-53
2022/04/30 07:24:35;;;;;;;;;;;;;;;24.65;37.41;94666.91;5006288;28;9151;-52
2022/04/30 07:27:04;;;;;;;;;;;;;;;24.69;37.46;94669.38;5008705;28;7148;-53
2022/04/30 07:29:33;;;;;;;;;;;;;;;24.69;37.51;94669.38;4978664;28;9087;-52
2022/04/30 07:32:00;;;;;;;;;;;;;;;24.68;37.67;94667.91;5004672;28;9144;-53
2022/04/30 07:34:39;;;;;;;;;;;;;;;24.68;37.79;94673.41;5013456;28;9261;-51
2022/04/30 07:37:15;;;;;;;;;;;;;;;24.66;37.59;94662.16;5008562;28;9222;-52
2022/04/30 07:39:46;;;;;;;;;;;;;;;24.66;37.82;94673.88;4992045;28;9624;-52
2022/04/30 07:42:13;;;;;;;;;;;;;;;24.65;37.77;94672.41;4994224;28;9342;-52
2022/04/30 07:44:39;;;;;;;;;;;;;;;24.65;37.59;94666.91;4989517;28;9079;-51
2022/04/30 07:47:08;;;;;;;;;;;;;;;24.64;37.48;94662.63;5004378;28;8917;-50
2022/04/30 07:49:34;;;;;;;;;;;;;;;24.64;37.37;94673.63;4991852;28;9114;-53
2022/04/30 07:52:00;;;;;;;;;;;;;;;24.63;37.62;94665.88;4992276;28;7551;-53
2022/04/30 07:54:27;;;;;;;;;;;;;;;24.65;37.55;94675.16;5000120;28;7617;-53
2022/04/30 07:57:00;;;;;;;;;;;;;;;24.61;38.02;94671.91;4977976;28;7078;-53
2022/04/30 07:59:33;;;;;;;;;;;;;;;24.65;37.36;94675.16;4987368;28;9478;-52
2022/04/30 08:02:06;;;;;;;;;;;;;;;24.65;37.88;94677.91;4988286;28;9028;-52
2022/04/30 08:04:33;;;;;;;;;;;;;;;24.63;37.70;94674.91;4987640;28;9421;-53
2022/04/30 08:07:05;;;;;;;;;;;;;;;24.65;37.76;94683.41;5001098;28;9007;-53
2022/04/30 08:09:44;;;;;;;;;;;;;;;24.65;37.77;94679.88;4989430;28;8128;-50
2022/04/30 08:12:12;;;;;;;;;;;;;;;24.65;37.59;94677.91;5008493;28;7251;-52
2022/04/30 08:14:40;;;;;;;;;;;;;;;24.65;37.80;94677.13;4990581;28;9167;-53
2022/04/30 08:17:13;;;;;;;;;;;;;;;24.61;38.19;94682.91;4986643;28;9071;-53
2022/04/30 08:19:45;;;;;;;;;;;;;;;24.64;37.97;94681.88;4982606;28;9048;-53
2022/04/30 08:22:13;;;;;;;;;;;;;;;24.64;37.59;94679.13;5005658;28;7081;-52
2022/04/30 08:24:42;;;;;;;;;;;;;;;24.66;37.85;94687.63;4990937;28;7536;-53
2022/04/30 08:27:08;;;;;;;;;;;;;;;24.64;37.48;94676.38;4990145;28;9097;-50
2022/04/30 08:29:34;;;;;;;;;;;;;;;24.65;37.40;94677.13;4982305;28;9399;-53
2022/04/30 08:32:09;;;;;;;;;;;;;;;24.66;37.66;94675.91;5002704;28;9037;-53
2022/04/30 08:34:39;;;;;;;;;;;;;;;24.65;37.35;94677.91;5003387;28;8785;-53
2022/04/30 08:37:05;;;;;;;;;;;;;;;24.63;37.85;94671.38;5003210;28;9095;-52
2022/04/30 08:39:34;;;;;;;;;;;;;;;24.65;37.72;94677.91;4986826;28;7038;-52
2022/04/30 08:42:01;;;;;;;;;;;;;;;24.64;37.85;94679.13;4986713;28;6981;-50
2022/04/30 08:44:27;;;;;;;;;;;;;;;24.65;37.55;94671.63;4981170;28;7696;-51
2022/04/30 08:46:54;;;;;;;;;;;;;;;24.61;37.79;94671.91;4986310;28;7164;-53
2022/04/30 08:49:21;;;;;;;;;;;;;;;24.67;37.81;94674.63;4983896;28;7262;-51
2022/04/30 08:51:47;;;;;;;;;;;;;;;24.67;37.62;94678.16;4991562;28;9094;-51
2022/04/30 08:54:13;;;;;;;;;;;;;;;24.67;37.52;94671.88;4960535;28;7471;-53
2022/04/30 08:56:53;;;;;;;;;;;;;;;24.67;37.87;94669.91;4986327;28;8572;-63
2022/04/30 08:59:20;;;;;;;;;;;;;;;24.68;37.98;94665.16;4986994;28;9480;-63
2022/04/30 09:01:57;;;;;;;;;;;;;;;24.69;37.30;94672.91;4990125;28;9161;-63
2022/04/30 09:04:26;;;;;;;;;;;;;;;24.68;37.80;94673.41;4982055;28;9157;-62
2022/04/30 09:06:55;;;;;;;;;;;;;;;24.69;37.17;94664.66;4987450;28;7394;-63
2022/04/30 09:09:32;;;;;;;;;;;;;;;24.70;38.20;94666.16;4987260;28;7208;-62
2022/04/30 09:12:10;;;;;;;;;;;;;;;24.71;37.67;94666.88;4989191;28;8714;-62
2022/04/30 09:14:43;;;;;;;;;;;;;;;24.73;37.60;94667.13;4981975;28;8687;-62
2022/04/30 09:17:11;;;;;;;;;;;;;;;24.75;37.71;94663.94;4980580;28;6852;-62
2022/04/30 09:20:16;;;;;;;;;;;;;;;24.75;37.57;94663.94;4979768;28;9253;-63
2022/04/30 09:22:44;;;;;;;;;;;;;;;24.77;37.24;94655.94;4991597;28;7435;-62
2022/04/30 09:25:15;;;;;;;;;;;;;;;24.78;37.41;94660.19;4989586;28;7428;-63
2022/04/30 09:27:52;;;;;;;;;;;;;;;24.75;37.30;94655.69;4990260;28;7571;-62
2022/04/30 09:30:30;;;;;;;;;;;;;;;24.79;37.98;94653.44;5007124;28;8832;-62
2022/04/30 09:33:02;;;;;;;;;;;;;;;24.78;37.73;94658.19;4987253;28;9408;-63
2022/04/30 09:38:16;;;;;;;;;;;;;;;24.77;37.66;94648.44;4990005;28;9583;-62
2022/04/30 09:41:00;;;;;;;;;;;;;;;24.77;37.88;94653.94;4984499;28;7150;-63
2022/04/30 09:43:30;;;;;;;;;;;;;;;24.77;38.02;94647.69;4995853;28;9422;-64
2022/04/30 09:46:00;;;;;;;;;;;;;;;24.73;37.67;94645.13;4982280;28;7088;-64
2022/04/30 09:54:07;;;;;;;;;;;;;;;24.73;37.58;94639.63;4995992;28;9121;-63
2022/04/30 09:56:38;;;;;;;;;;;;;;;24.73;37.72;94633.41;4989420;28;8696;-63
2022/04/30 09:59:15;;;;;;;;;;;;;;;24.76;37.61;94635.16;5002550;28;9176;-63
2022/04/30 10:01:47;;;;;;;;;;;;;;;24.75;38.00;94628.91;4985750;28;7987;-64
2022/04/30 10:04:19;;;;;;;;;;;;;;;24.73;38.03;94631.38;4990724;28;7015;-64
2022/04/30 10:06:53;;;;;;;;;;;;;;;24.70;37.61;94624.91;4990337;28;7240;-63
2022/04/30 10:09:45;;;;;;;;;;;;;;;24.74;37.91;94632.91;4984360;28;6867;-62
2022/04/30 10:12:33;;;;;;;;;;;;;;;24.78;37.45;94632.66;4940200;28;9505;-62
2022/04/30 10:15:20;;;;;;;;;;;;;;;24.78;37.67;94624.41;4948016;28;6994;-63
2022/04/30 10:17:49;;;;;;;;;;;;;;;24.75;37.60;94609.66;4955649;28;9206;-63
2022/04/30 10:20:35;;;;;;;;;;;;;;;24.77;38.14;94622.94;4943986;28;9457;-63
2022/04/30 10:23:04;;;;;;;;;;;;;;;24.76;37.71;94607.66;4950039;28;7361;-62
2022/04/30 10:25:46;;;;;;;;;;;;;;;24.76;38.02;94613.16;4941140;28;7747;-62
2022/04/30 10:28:15;;;;;;;;;;;;;;;24.78;37.34;94605.16;4933732;28;9111;-63
2022/04/30 10:31:06;;;;;;;;;;;;;;;24.75;38.07;94598.66;4933806;28;8965;-63
2022/04/30 10:33:33;;;;;;;;;;;;;;;24.77;37.68;94598.94;4944991;28;9186;-63
2022/04/30 10:36:08;;;;;;;;;;;;;;;24.79;38.32;94604.69;4951538;28;7195;-62
2022/04/30 10:38:35;;;;;;;;;;;;;;;24.78;37.59;94603.16;4949842;28;7387;-61
2022/04/30 10:41:40;;;;;;;;;;;;;;;24.77;37.81;94601.69;4938162;28;7032;-62
2022/04/30 10:44:06;;;;;;;;;;;;;;;24.77;37.85;94587.94;4952990;28;7008;-62
2022/04/30 10:46:37;;;;;;;;;;;;;;;24.73;37.96;94583.91;4952227;28;9075;-62
2022/04/30 10:49:05;;;;;;;;;;;;;;;24.76;37.35;94588.41;4957448;28;8734;-62
2022/04/30 10:51:40;;;;;;;;;;;;;;;24.76;38.06;94591.16;4986006;28;7082;-62
2022/04/30 10:54:13;;;;;;;;;;;;;;;24.76;37.73;94580.91;4997270;28;7305;-60
2022/04/30 10:56:40;;;;;;;;;;;;;;;24.74;37.61;94580.63;5005832;28;8782;-63
2022/04/30 10:59:10;;;;;;;;;;;;;;;24.76;38.38;94585.66;4992557;28;7631;-63
2022/04/30 11:01:36;;;;;;;;;;;;;;;24.75;37.92;94584.16;4987551;28;7225;-63
2022/04/30 11:04:02;;;;;;;;;;;;;;;24.75;37.76;94578.66;5008545;28;7841;-63
2022/04/30 11:06:32;;;;;;;;;;;;;;;24.76;37.99;94580.16;5003905;28;9777;-62
2022/04/30 11:09:05;;;;;;;;;;;;;;;24.77;38.02;94570.66;5000612;28;6973;-57
2022/04/30 11:11:35;;;;;;;;;;;;;;;24.78;37.81;94566.66;4985006;28;9211;-57
2022/04/30 11:14:08;;;;;;;;;;;;;;;24.75;37.81;94571.16;4985963;28;8831;-57
2022/04/30 11:16:42;;;;;;;;;;;;;;;24.75;37.95;94567.66;4982174;28;9607;-57
2022/04/30 11:19:13;;;;;;;;;;;;;;;24.73;37.82;94563.38;4992545;28;9139;-57
2022/04/30 11:21:40;;;;;;;;;;;;;;;24.78;37.60;94552.91;4992209;28;9606;-57
2022/04/30 11:24:09;;;;;;;;;;;;;;;24.79;37.40;94546.16;4990703;28;7225;-57
2022/04/30 11:26:45;;;;;;;;;;;;;;;24.79;37.42;94555.16;4992317;28;7042;-57
2022/04/30 11:29:15;;;;;;;;;;;;;;;24.79;37.41;94548.91;5005646;28;7377;-57
2022/04/30 11:31:45;;;;;;;;;;;;;;;24.81;37.70;94549.91;5005269;28;9080;-56
2022/04/30 11:34:18;;;;;;;;;;;;;;;24.83;37.87;94543.91;4981085;28;7269;-57
2022/04/30 11:36:53;;;;;;;;;;;;;;;24.82;37.69;94548.63;4989237;28;9092;-56
2022/04/30 11:39:21;;;;;;;;;;;;;;;24.79;37.74;94548.91;4983775;28;7184;-57
2022/04/30 11:41:49;;;;;;;;;;;;;;;24.81;38.11;94543.66;4994047;28;8955;-57
2022/04/30 11:44:23;;;;;;;;;;;;;;;24.84;37.62;94542.66;4992103;28;7384;-58
2022/04/30 11:46:56;;;;;;;;;;;;;;;24.83;37.65;94544.66;4989282;28;7383;-57
2022/04/30 11:49:24;;;;;;;;;;;;;;;24.81;37.63;94535.41;4980130;28;7561;-61
2022/04/30 11:51:56;;;;;;;;;;;;;;;24.82;37.59;94539.63;5008793;28;11031;-57
2022/04/30 11:54:30;;;;;;;;;;;;;;;24.84;37.65;94529.63;4989936;28;7000;-57
2022/04/30 11:57:14;;;;;;;;;;;;;;;24.81;37.64;94519.66;4984034;28;7156;-58
2022/04/30 11:59:43;;;;;;;;;;;;;;;24.92;38.20;94535.38;4986389;28;7257;-57
2022/04/30 12:02:15;;;;;;;;;;;;;;;24.91;37.59;94529.13;4989897;28;8843;-57
2022/04/30 12:04:50;;;;;;;;;;;;;;;24.93;37.88;94525.88;4991662;28;7530;-57
2022/04/30 12:07:17;;;;;;;;;;;;;;;24.93;37.79;94520.34;5006089;28;7264;-57
2022/04/30 12:09:55;;;;;;;;;;;;;;;24.95;37.86;94515.84;4987759;28;7324;-56
2022/04/30 12:12:22;;;;;;;;;;;;;;;24.95;37.36;94512.34;4992221;28;7245;-57
2022/04/30 12:14:52;;;;;;;;;;;;;;;24.96;37.63;94509.13;5004063;28;7231;-57
2022/04/30 12:17:26;;;;;;;;;;;;;;;24.94;37.82;94510.88;5004200;28;9110;-60
2022/04/30 12:25:45;;;;;;;;;;;;;;;24.99;37.93;94497.09;4989861;28;7251;-57
2022/04/30 12:28:14;;;;;;;;;;;;;;;24.98;37.87;94492.09;4991185;28;9526;-58
2022/04/30 12:30:54;;;;;;;;;;;;;;;25.00;37.54;94495.09;4990939;28;9158;-58
2022/04/30 12:33:28;;;;;;;;;;;;;;;24.96;38.05;94492.59;4982417;28;9085;-58
2022/04/30 12:36:00;;;;;;;;;;;;;;;24.91;37.64;94487.09;4986780;28;9437;-58
2022/04/30 12:38:31;;;;;;;;;;;;;;;24.93;38.11;94487.34;4986552;28;9258;-57
2022/04/30 12:41:15;;;;;;;;;;;;;;;24.94;38.21;94488.84;4991388;28;7277;-56
2022/04/30 12:43:41;;;;;;;;;;;;;;;24.92;37.72;94499.63;5010710;28;8588;-58
2022/04/30 12:46:08;;;;;;;;;;;;;;;24.87;38.07;94490.13;4990726;28;7101;-58
2022/04/30 12:48:34;;;;;;;;;;;;;;;24.86;38.01;94505.13;5006326;28;7140;-58
2022/04/30 12:51:00;;;;;;;;;;;;;;;24.84;38.12;94498.63;5006257;28;9168;-58
2022/04/30 12:53:59;;;;;;;;;;;;;;;24.81;38.11;94497.63;4984877;28;9120;-56
2022/04/30 12:56:36;;;;;;;;;;;;;;;24.80;37.73;94504.38;4964657;28;8516;-57
2022/04/30 12:59:14;;;;;;;;;;;;;;;24.81;38.04;94507.88;4963762;28;7270;-58
2022/04/30 13:01:41;;;;;;;;;;;;;;;24.84;37.95;94506.91;4971655;28;9222;-56
2022/04/30 13:04:18;;;;;;;;;;;;;;;24.84;37.85;94510.38;4983415;28;9206;-56
2022/04/30 13:07:15;;;;;;;;;;;;;;;24.84;38.14;94512.41;4984890;28;7205;-57
2022/04/30 13:15:27;;;;;;;;;;;;;;;24.89;37.91;94541.88;4912504;29;8990;-57
2022/04/30 13:17:58;;;;;;;;;;;;;;;24.89;37.76;94544.63;4896625;29;7343;-57
2022/04/30 13:20:29;;;;;;;;;;;;;;;24.89;37.63;94555.63;4910497;29;7337;-57
2022/04/30 13:22:58;;;;;;;;;;;;;;;24.91;38.05;94553.13;4893535;29;9430;-57
2022/04/30 13:25:26;;;;;;;;;;;;;;;24.89;37.50;94541.88;4909643;29;7524;-57
2022/04/30 13:27:53;;;;;;;;;;;;;;;24.92;38.23;94549.91;4894147;29;9122;-57
2022/04/30 13:30:24;;;;;;;;;;;;;;;24.93;37.68;94558.88;4903310;29;9444;-57
2022/04/30 13:32:51;;;;;;;;;;;;;;;24.91;37.64;94545.63;4908640;29;9132;-57
2022/04/30 13:35:18;;;;;;;;;;;;;;;24.94;37.94;94554.88;4906656;29;7355;-57
2022/04/30 13:37:45;;;;;;;;;;;;;;;24.96;38.25;94555.13;4907799;29;9144;-57
2022/04/30 13:40:12;;;;;;;;;;;;;;;24.94;37.58;94565.91;4907973;29;7714;-57
2022/04/30 13:42:39;;;;;;;;;;;;;;;24.91;38.28;94564.91;4896014;29;7304;-57
2022/04/30 13:45:06;;;;;;;;;;;;;;;24.92;38.17;94568.41;4918412;28;9008;-57
2022/04/30 13:47:36;;;;;;;;;;;;;;;24.95;37.52;94567.38;4991419;28;7080;-57
2022/04/30 13:50:06;;;;;;;;;;;;;;;24.93;37.89;94562.38;4990060;28;7070;-58
2022/04/30 13:52:45;;;;;;;;;;;;;;;24.96;38.22;94555.13;4991352;28;7237;-58
2022/04/30 13:55:16;;;;;;;;;;;;;;;24.94;37.63;94549.38;5011362;28;7170;-57
2022/04/30 13:57:54;;;;;;;;;;;;;;;24.94;37.27;94550.16;4994359;28;9640;-57
2022/04/30 14:00:24;;;;;;;;;;;;;;;24.94;37.76;94541.13;4995078;28;9329;-57
2022/04/30 14:03:02;;;;;;;;;;;;;;;24.93;37.84;94525.88;4985121;28;7850;-57
2022/04/30 14:05:30;;;;;;;;;;;;;;;24.94;37.24;94522.63;4980899;28;7256;-57